createdAt,value
2022-11-16T00:11:10.434Z,967.8
2022-11-16T00:25:38.968Z,967.6
2022-11-16T00:40:06.956Z,967.5
2022-11-16T00:54:34.701Z,967.4
2022-11-16T01:09:03.014Z,967.4
2022-11-16T01:23:32.238Z,967.3
2022-11-16T01:38:00.583Z,967.3
2022-11-16T01:52:27.969Z,967.2
2022-11-16T02:06:59.551Z,967
2022-11-16T02:21:24.805Z,967
2022-11-16T02:35:52.987Z,966.9
2022-11-16T02:50:20.473Z,966.8
2022-11-16T03:04:48.344Z,967
2022-11-16T03:19:16.377Z,967
2022-11-16T03:33:42.400Z,966.8
2022-11-16T03:48:12.481Z,966.8
2022-11-16T04:02:38.569Z,966.9
2022-11-16T04:17:06.583Z,966.9
2022-11-16T04:31:34.758Z,967
2022-11-16T04:46:03.426Z,967
2022-11-16T05:00:30.310Z,967
2022-11-16T05:14:58.089Z,967.1
2022-11-16T05:29:26.158Z,967.4
2022-11-16T05:43:54.814Z,967.3
2022-11-16T05:58:23.781Z,967.3
2022-11-16T06:12:51.390Z,967.4
2022-11-16T06:27:19.610Z,967.6
2022-11-16T06:41:46.722Z,967.8
2022-11-16T06:56:16.475Z,967.9
2022-11-16T07:10:43.625Z,968.1
2022-11-16T07:25:11.501Z,968
2022-11-16T07:39:41.925Z,968.2
2022-11-16T07:54:08.630Z,968.4
2022-11-16T08:08:37.337Z,968.6
2022-11-16T08:23:07.048Z,969
2022-11-16T08:37:33.873Z,969.1
2022-11-16T08:52:00.196Z,969.5
2022-11-16T09:06:32.638Z,969.6
2022-11-16T09:21:02.176Z,969.7
2022-11-16T09:35:26.708Z,969.7
2022-11-16T09:50:04.356Z,969.7
2022-11-16T10:04:26.713Z,969.6
2022-11-16T10:18:54.057Z,969.6
2022-11-16T10:33:22.804Z,969.4
2022-11-16T10:47:50.726Z,969.3
2022-11-16T11:02:19.362Z,968.9
2022-11-16T11:16:45.497Z,969
2022-11-16T11:31:13.695Z,968.9
2022-11-16T11:45:40.827Z,968.8
2022-11-16T12:00:09.065Z,968.5
2022-11-16T12:14:40.948Z,968.4
2022-11-16T12:29:08.048Z,968.3
2022-11-16T12:43:37.037Z,968.3
2022-11-16T12:58:02.803Z,968.2
2022-11-16T13:12:30.826Z,968
2022-11-16T13:27:00.781Z,968
2022-11-16T13:41:27.629Z,968
2022-11-16T13:55:53.970Z,967.9
2022-11-16T14:10:22.490Z,967.8
2022-11-16T14:24:50.816Z,967.5
2022-11-16T14:39:19.892Z,967.6
2022-11-16T14:53:44.612Z,967.5
2022-11-16T15:08:12.033Z,967.5
2022-11-16T15:22:39.884Z,967.4
2022-11-16T15:37:08.231Z,967.4
2022-11-16T15:51:35.841Z,967.3
2022-11-16T16:06:04.038Z,967.1
2022-11-16T16:20:32.026Z,966.9
2022-11-16T16:34:59.285Z,966.9
2022-11-16T16:49:28.196Z,966.9
2022-11-16T17:03:56.136Z,966.7
2022-11-16T17:18:29.255Z,966.6
2022-11-16T17:32:53.252Z,966.4
2022-11-16T17:47:22.219Z,966.3
2022-11-16T18:01:50.325Z,966.2
2022-11-16T18:16:18.164Z,966.2
2022-11-16T18:30:44.643Z,966
2022-11-16T18:45:11.660Z,965.9
2022-11-16T18:59:40.582Z,965.9
2022-11-16T19:14:08.095Z,966.1
2022-11-16T19:28:36.520Z,966
2022-11-16T19:43:04.528Z,965.8
2022-11-16T19:57:32.519Z,965.6
2022-11-16T20:12:00.379Z,965.5
2022-11-16T20:26:29.429Z,965.3
2022-11-16T20:40:57.527Z,965.1
2022-11-16T20:55:25.995Z,964.8
2022-11-16T21:09:53.051Z,964.7
2022-11-16T21:24:20.201Z,964.6
2022-11-16T21:38:47.663Z,964.3
2022-11-16T21:53:16.209Z,964.2
2022-11-16T22:07:44.042Z,964
2022-11-16T22:22:13.099Z,963.7
2022-11-16T22:36:40.156Z,963.4
2022-11-16T22:51:09.027Z,963.2
2022-11-16T23:05:36.429Z,963
2022-11-16T23:20:04.533Z,962.8
2022-11-16T23:34:30.577Z,962.4
2022-11-16T23:49:00.368Z,962.3
